Time;durP1;ratioP1;P1;durP2;ratioP2;P2;SDS_P1;SDS_P2;PMS_P1;PMS_P2;Temp;Humidity;BMP_temperature;BMP_pressure;BME280_temperature;BME280_humidity;BME280_pressure;Samples;Min_cycle;Max_cycle;Signal;HPM_P1;HPM_P2
2021/08/29 00:02:12;;;;;;;8.90;7.77;;;12.60;99.90;;;;;;5018386;28;20461;-66
2021/08/29 00:04:39;;;;;;;9.33;7.47;;;12.60;99.90;;;;;;5018719;28;20518;-65
2021/08/29 00:07:06;;;;;;;8.83;7.23;;;12.60;99.90;;;;;;5013198;28;20464;-67
2021/08/29 00:09:33;;;;;;;10.27;7.13;;;12.70;99.90;;;;;;5010843;28;20450;-66
2021/08/29 00:12:00;;;;;;;8.50;7.23;;;12.70;99.90;;;;;;5011004;28;20556;-66
2021/08/29 00:14:28;;;;;;;11.20;8.63;;;12.60;99.90;;;;;;5011276;28;20486;-67
2021/08/29 00:16:55;;;;;;;8.40;7.30;;;12.60;99.90;;;;;;5011312;28;20435;-66
2021/08/29 00:19:22;;;;;;;9.00;8.07;;;12.50;99.90;;;;;;5010877;28;20529;-65
2021/08/29 00:21:49;;;;;;;8.87;7.57;;;12.60;99.90;;;;;;5010791;28;20484;-65
2021/08/29 00:24:15;;;;;;;9.33;7.50;;;12.60;99.90;;;;;;5010611;28;20450;-66
2021/08/29 00:26:42;;;;;;;9.57;8.10;;;12.60;99.90;;;;;;5011079;28;20529;-66
2021/08/29 00:29:09;;;;;;;8.87;7.10;;;12.70;99.90;;;;;;5010912;28;20438;-65
2021/08/29 00:31:37;;;;;;;9.17;7.23;;;12.70;99.90;;;;;;5010145;28;20469;-66
2021/08/29 00:34:04;;;;;;;8.70;7.00;;;12.80;99.90;;;;;;5010610;28;21212;-66
2021/08/29 00:36:31;;;;;;;7.90;6.60;;;12.80;99.90;;;;;;5010470;28;20449;-65
2021/08/29 00:38:58;;;;;;;7.47;6.30;;;12.80;99.90;;;;;;5010367;28;20445;-66
2021/08/29 00:41:25;;;;;;;9.80;7.67;;;12.80;99.90;;;;;;5010252;28;20886;-65
2021/08/29 00:43:52;;;;;;;7.50;6.70;;;12.80;99.90;;;;;;5010568;28;20458;-66
2021/08/29 00:46:19;;;;;;;8.23;7.33;;;12.80;99.90;;;;;;5010399;28;21004;-67
2021/08/29 00:48:49;;;;;;;8.20;6.53;;;12.90;99.90;;;;;;5010363;28;20536;-66
2021/08/29 00:51:16;;;;;;;7.40;6.70;;;12.80;99.90;;;;;;5010311;28;20481;-66
2021/08/29 00:53:48;;;;;;;8.40;7.00;;;12.90;99.90;;;;;;5012305;28;20488;-66
2021/08/29 00:56:15;;;;;;;7.97;7.13;;;12.90;99.90;;;;;;5014224;28;20446;-66
2021/08/29 00:58:43;;;;;;;10.03;7.30;;;13.10;99.90;;;;;;5014133;28;20795;-65
2021/08/29 01:01:10;;;;;;;8.20;6.97;;;13.20;99.90;;;;;;5014246;28;20449;-65
2021/08/29 01:03:39;;;;;;;6.97;6.00;;;13.20;99.90;;;;;;5013719;28;20468;-65
2021/08/29 01:06:19;;;;;;;7.40;6.40;;;13.20;99.90;;;;;;5014215;28;20454;-65
2021/08/29 01:08:51;;;;;;;8.23;5.90;;;13.20;99.90;;;;;;5014133;28;20454;-65
2021/08/29 01:11:24;;;;;;;8.60;7.00;;;13.30;99.90;;;;;;5013953;28;20450;-65
2021/08/29 01:13:53;;;;;;;8.60;6.13;;;13.30;99.90;;;;;;5013612;28;20859;-66
2021/08/29 01:16:22;;;;;;;9.57;6.50;;;13.30;99.90;;;;;;5013548;28;20453;-67
2021/08/29 01:18:54;;;;;;;8.00;5.73;;;13.20;99.90;;;;;;5013808;28;20805;-66
2021/08/29 01:21:26;;;;;;;7.40;6.47;;;13.20;99.90;;;;;;5013422;28;20441;-66
2021/08/29 01:23:58;;;;;;;8.23;6.53;;;13.10;99.90;;;;;;5013322;28;20457;-66
2021/08/29 01:26:33;;;;;;;8.37;5.27;;;13.10;99.90;;;;;;5013355;28;20450;-66
2021/08/29 01:29:04;;;;;;;7.43;6.40;;;13.10;99.90;;;;;;5013845;28;20792;-67
2021/08/29 01:31:32;;;;;;;8.13;7.30;;;13.10;99.90;;;;;;5013269;28;20525;-67
2021/08/29 01:34:01;;;;;;;6.87;6.00;;;13.10;99.90;;;;;;5013799;28;20481;-66
2021/08/29 01:36:29;;;;;;;8.47;6.50;;;13.10;99.90;;;;;;5013401;28;20489;-66
2021/08/29 01:38:57;;;;;;;9.10;7.00;;;13.00;99.90;;;;;;5013277;28;20540;-66
2021/08/29 01:41:25;;;;;;;8.13;6.93;;;13.00;99.90;;;;;;5012869;28;20541;-66
2021/08/29 01:43:52;;;;;;;9.60;7.50;;;13.00;99.90;;;;;;5013211;28;20556;-67
2021/08/29 01:46:21;;;;;;;8.17;6.90;;;13.00;99.90;;;;;;5013196;28;20525;-66
2021/08/29 01:48:48;;;;;;;7.80;7.00;;;13.00;99.90;;;;;;5013125;28;20549;-66
2021/08/29 01:51:16;;;;;;;9.57;7.20;;;13.00;99.90;;;;;;5012993;28;20457;-66
2021/08/29 01:53:43;;;;;;;9.20;7.50;;;12.90;99.90;;;;;;5013282;28;20488;-66
2021/08/29 01:56:10;;;;;;;9.70;8.20;;;12.90;99.90;;;;;;5013239;28;20446;-66
2021/08/29 01:58:37;;;;;;;9.27;8.30;;;12.90;99.90;;;;;;5012776;28;20525;-66
2021/08/29 02:01:09;;;;;;;8.50;7.67;;;13.00;99.90;;;;;;5012689;28;20446;-66
2021/08/29 02:03:39;;;;;;;9.17;8.17;;;13.00;99.90;;;;;;5012551;28;20470;-66
2021/08/29 02:06:11;;;;;;;10.20;8.10;;;13.00;99.90;;;;;;5012105;28;21003;-66
2021/08/29 02:08:41;;;;;;;9.10;7.37;;;13.00;99.90;;;;;;5012990;28;20529;-66
2021/08/29 02:11:09;;;;;;;12.00;8.63;;;13.00;99.90;;;;;;5012567;28;20453;-66
2021/08/29 02:13:39;;;;;;;10.20;9.10;;;13.00;99.90;;;;;;5012276;28;20484;-66
2021/08/29 02:16:10;;;;;;;9.97;8.07;;;13.00;99.90;;;;;;5012400;28;20465;-66
2021/08/29 02:18:42;;;;;;;9.57;7.60;;;13.00;99.90;;;;;;5012576;28;20446;-67
2021/08/29 02:21:10;;;;;;;9.80;7.87;;;13.00;99.90;;;;;;5012891;28;20454;-66
2021/08/29 02:23:38;;;;;;;13.30;9.50;;;13.00;99.90;;;;;;5012234;28;20475;-66
2021/08/29 02:26:05;;;;;;;9.53;8.40;;;13.10;99.90;;;;;;5012542;28;20967;-67
2021/08/29 02:28:33;;;;;;;11.70;8.40;;;13.10;99.90;;;;;;5013171;28;20460;-66
2021/08/29 02:31:00;;;;;;;9.20;7.87;;;13.10;99.90;;;;;;5013417;28;20456;-66
2021/08/29 02:33:28;;;;;;;9.60;8.50;;;13.10;99.90;;;;;;5012272;28;21018;-67
2021/08/29 02:35:59;;;;;;;8.53;7.53;;;13.10;99.90;;;;;;5012843;28;20441;-66
2021/08/29 02:38:26;;;;;;;8.60;7.50;;;13.10;99.90;;;;;;5013291;28;20445;-66
2021/08/29 02:40:55;;;;;;;10.93;8.83;;;13.10;99.90;;;;;;5012228;28;20484;-66
2021/08/29 02:43:23;;;;;;;10.57;9.03;;;13.10;99.90;;;;;;5011639;28;20465;-66
2021/08/29 02:45:51;;;;;;;11.40;8.90;;;13.10;99.90;;;;;;5012497;28;20442;-66
2021/08/29 02:48:18;;;;;;;16.47;9.70;;;13.10;99.90;;;;;;5012486;28;20449;-66
2021/08/29 02:50:47;;;;;;;20.20;12.20;;;13.20;99.90;;;;;;5012297;28;20453;-66
2021/08/29 02:53:17;;;;;;;12.50;9.27;;;13.10;99.90;;;;;;5011851;28;20465;-66
2021/08/29 02:55:48;;;;;;;13.40;10.17;;;13.10;99.90;;;;;;5011896;28;20481;-66
2021/08/29 02:58:15;;;;;;;12.30;10.27;;;13.20;99.90;;;;;;5011769;28;20450;-66
2021/08/29 03:00:42;;;;;;;19.57;10.87;;;13.20;99.90;;;;;;5011804;28;20904;-66
2021/08/29 03:03:09;;;;;;;12.17;9.30;;;13.20;99.90;;;;;;5011792;28;20478;-66
2021/08/29 03:05:36;;;;;;;10.80;9.20;;;13.20;99.90;;;;;;5011921;28;20445;-65
2021/08/29 03:08:04;;;;;;;12.47;10.10;;;13.20;99.90;;;;;;5011553;28;20449;-66
2021/08/29 03:10:34;;;;;;;11.20;9.77;;;13.20;99.90;;;;;;5011651;28;20821;-66
2021/08/29 03:13:03;;;;;;;11.50;9.30;;;13.20;99.90;;;;;;5010801;28;20480;-66
2021/08/29 03:15:31;;;;;;;11.50;9.60;;;13.20;99.90;;;;;;5011076;28;20481;-66
2021/08/29 03:17:59;;;;;;;11.33;8.93;;;13.30;99.90;;;;;;5010900;28;20488;-66
2021/08/29 03:20:26;;;;;;;10.00;8.40;;;13.20;99.90;;;;;;5011366;28;20946;-66
2021/08/29 03:22:54;;;;;;;11.47;9.63;;;13.30;99.90;;;;;;5010849;28;20476;-66
2021/08/29 03:25:21;;;;;;;9.20;7.90;;;13.20;99.90;;;;;;5011184;28;20541;-66
2021/08/29 03:27:50;;;;;;;12.60;8.67;;;13.20;99.90;;;;;;5011371;28;20472;-66
2021/08/29 03:30:17;;;;;;;9.53;8.53;;;13.20;99.90;;;;;;5011289;28;20504;-66
2021/08/29 03:32:44;;;;;;;12.73;10.30;;;13.20;99.90;;;;;;5010784;28;20548;-66
2021/08/29 03:35:14;;;;;;;12.57;10.20;;;13.20;99.90;;;;;;5011028;28;20481;-66
2021/08/29 03:37:42;;;;;;;14.57;10.33;;;13.20;99.90;;;;;;5011078;28;20446;-66
2021/08/29 03:40:09;;;;;;;14.90;10.03;;;13.30;99.90;;;;;;5010897;28;21098;-66
2021/08/29 03:42:36;;;;;;;18.57;10.70;;;13.30;99.90;;;;;;5010708;28;20473;-66
2021/08/29 03:45:07;;;;;;;13.90;10.40;;;13.30;99.90;;;;;;5011212;28;20445;-67
2021/08/29 03:47:35;;;;;;;14.97;11.33;;;13.30;99.90;;;;;;5011130;28;20441;-66
2021/08/29 03:50:03;;;;;;;13.33;10.30;;;13.30;99.90;;;;;;5010842;28;20541;-66
2021/08/29 03:52:31;;;;;;;15.10;10.90;;;13.30;99.90;;;;;;5010505;28;20504;-66
2021/08/29 03:54:58;;;;;;;18.93;11.50;;;13.30;99.90;;;;;;5010575;28;20484;-66
2021/08/29 03:57:26;;;;;;;19.50;11.80;;;13.30;99.90;;;;;;5010843;28;20928;-66
2021/08/29 03:59:53;;;;;;;15.93;11.30;;;13.40;99.90;;;;;;5011128;28;20664;-66
2021/08/29 04:02:22;;;;;;;15.63;11.30;;;13.40;99.90;;;;;;5010198;28;20479;-66
2021/08/29 04:04:49;;;;;;;13.00;10.80;;;13.40;99.90;;;;;;5010526;28;20965;-66
2021/08/29 04:07:17;;;;;;;20.90;12.00;;;13.40;99.90;;;;;;5010613;28;20449;-67
2021/08/29 04:09:45;;;;;;;12.73;10.20;;;13.40;99.90;;;;;;5010940;28;20842;-66
2021/08/29 04:12:13;;;;;;;12.77;9.73;;;13.30;99.90;;;;;;5010167;28;20470;-66
2021/08/29 04:14:42;;;;;;;13.90;9.90;;;13.40;99.90;;;;;;5010470;28;20485;-66
2021/08/29 04:17:10;;;;;;;12.87;9.33;;;13.30;99.90;;;;;;5010603;28;20450;-66
2021/08/29 04:19:42;;;;;;;15.57;10.33;;;13.30;99.90;;;;;;5010466;28;20449;-66
2021/08/29 04:22:11;;;;;;;11.80;9.67;;;13.30;99.90;;;;;;5010252;28;20473;-66
2021/08/29 04:24:38;;;;;;;14.37;10.43;;;13.30;99.90;;;;;;5010968;28;20450;-66
2021/08/29 04:27:06;;;;;;;11.97;9.00;;;13.30;99.90;;;;;;5010735;28;20446;-66
2021/08/29 04:29:34;;;;;;;13.33;9.67;;;13.20;99.90;;;;;;5014501;28;20454;-66
2021/08/29 04:32:01;;;;;;;11.80;8.87;;;13.20;99.90;;;;;;5014376;28;20477;-66
2021/08/29 04:34:28;;;;;;;10.63;8.77;;;13.20;99.90;;;;;;5014646;28;20507;-66
2021/08/29 04:36:56;;;;;;;10.70;9.30;;;13.20;99.90;;;;;;5015097;28;20449;-66
2021/08/29 04:39:23;;;;;;;15.10;10.20;;;13.10;99.90;;;;;;5014857;28;20818;-66
2021/08/29 04:41:50;;;;;;;11.27;8.93;;;13.10;99.90;;;;;;5014430;28;20907;-66
2021/08/29 04:44:17;;;;;;;12.40;9.37;;;13.10;99.90;;;;;;5014781;28;20454;-66
2021/08/29 04:46:44;;;;;;;15.00;9.87;;;13.10;99.90;;;;;;5014496;28;20441;-66
2021/08/29 04:49:11;;;;;;;12.10;9.17;;;13.10;99.90;;;;;;5014895;28;20461;-66
2021/08/29 04:51:37;;;;;;;12.93;9.43;;;13.00;99.90;;;;;;5014091;28;20961;-66
2021/08/29 04:54:06;;;;;;;12.83;9.67;;;13.10;99.90;;;;;;5014360;28;21006;-66
2021/08/29 04:56:33;;;;;;;12.30;10.37;;;13.00;99.90;;;;;;5014121;28;20485;-66
2021/08/29 04:59:00;;;;;;;12.80;9.67;;;13.00;99.90;;;;;;5014278;28;20788;-66
2021/08/29 05:01:30;;;;;;;10.10;8.80;;;13.00;99.90;;;;;;5013733;28;20537;-66
2021/08/29 05:03:57;;;;;;;11.50;8.97;;;13.10;99.90;;;;;;5014527;28;20507;-66
2021/08/29 05:06:26;;;;;;;14.37;8.80;;;13.00;99.90;;;;;;5014244;28;20478;-66
2021/08/29 05:08:53;;;;;;;11.40;9.00;;;13.00;99.90;;;;;;5014329;28;20838;-66
2021/08/29 05:11:21;;;;;;;10.93;8.60;;;12.90;99.90;;;;;;5013979;28;20552;-66
2021/08/29 05:13:48;;;;;;;11.97;8.20;;;13.00;99.90;;;;;;5013605;28;20472;-66
2021/08/29 05:16:15;;;;;;;11.17;9.87;;;13.00;99.90;;;;;;5014309;28;20481;-67
2021/08/29 05:18:42;;;;;;;13.37;9.87;;;13.00;99.90;;;;;;5014292;28;20762;-66
2021/08/29 05:21:09;;;;;;;14.37;10.20;;;13.00;99.90;;;;;;5014489;28;20532;-66
2021/08/29 05:23:36;;;;;;;12.17;10.10;;;13.00;99.90;;;;;;5013958;28;20482;-66
2021/08/29 05:26:02;;;;;;;13.93;9.87;;;13.00;99.90;;;;;;5014461;28;20446;-66
2021/08/29 05:28:31;;;;;;;10.67;9.20;;;13.00;99.90;;;;;;5014074;28;20451;-66
2021/08/29 05:30:58;;;;;;;11.60;8.80;;;13.00;99.90;;;;;;5014208;28;21052;-66
2021/08/29 05:33:24;;;;;;;17.40;10.40;;;13.00;99.90;;;;;;5013739;28;21020;-66
2021/08/29 05:35:51;;;;;;;12.03;9.90;;;13.00;99.90;;;;;;5014138;28;20485;-66
2021/08/29 05:38:18;;;;;;;13.30;8.93;;;13.10;99.90;;;;;;5014248;28;20815;-66
2021/08/29 05:40:45;;;;;;;11.07;8.50;;;13.20;99.90;;;;;;5012790;28;20533;-66
2021/08/29 05:43:12;;;;;;;11.27;8.37;;;13.20;99.90;;;;;;5013335;28;20476;-66
2021/08/29 05:45:40;;;;;;;21.33;11.57;;;13.20;99.90;;;;;;5013744;28;20449;-66
2021/08/29 05:48:07;;;;;;;22.93;12.60;;;13.20;99.90;;;;;;5013857;28;20442;-66
2021/08/29 05:50:34;;;;;;;19.27;11.43;;;13.30;99.90;;;;;;5013461;28;20442;-66
2021/08/29 05:53:00;;;;;;;11.13;8.83;;;13.30;99.90;;;;;;5012863;28;20857;-66
2021/08/29 05:55:27;;;;;;;14.37;9.47;;;13.40;99.90;;;;;;5012930;28;20481;-66
2021/08/29 05:57:54;;;;;;;11.47;8.57;;;13.40;99.90;;;;;;5013631;28;20456;-66
2021/08/29 06:00:21;;;;;;;12.30;8.83;;;13.40;99.90;;;;;;5013098;28;20973;-66
2021/08/29 06:02:49;;;;;;;13.40;8.10;;;13.40;99.90;;;;;;5012369;28;20469;-66
2021/08/29 06:05:17;;;;;;;11.20;9.03;;;13.40;99.90;;;;;;5012967;28;20450;-66
2021/08/29 06:07:43;;;;;;;17.47;9.40;;;13.40;99.90;;;;;;5012975;28;20596;-66
2021/08/29 06:10:12;;;;;;;11.10;8.77;;;13.40;99.90;;;;;;5012635;28;20453;-66
2021/08/29 06:12:39;;;;;;;9.63;8.33;;;13.40;99.90;;;;;;5012908;28;20478;-66
2021/08/29 06:15:07;;;;;;;8.87;7.27;;;13.50;99.90;;;;;;5012556;28;20489;-66
2021/08/29 06:17:34;;;;;;;10.43;8.47;;;13.50;99.90;;;;;;5012809;28;20450;-66
2021/08/29 06:20:03;;;;;;;8.10;6.80;;;13.40;99.90;;;;;;5012700;28;20450;-66
2021/08/29 06:22:29;;;;;;;8.70;7.30;;;13.40;99.90;;;;;;5012085;28;20481;-66
2021/08/29 06:24:56;;;;;;;10.77;7.30;;;13.40;99.90;;;;;;5012900;28;20450;-67
2021/08/29 06:27:23;;;;;;;8.17;6.53;;;13.40;99.90;;;;;;5013332;28;20446;-66
2021/08/29 06:29:50;;;;;;;9.60;6.20;;;13.50;99.90;;;;;;5012663;28;20445;-66
2021/08/29 06:32:17;;;;;;;9.00;7.17;;;13.50;99.90;;;;;;5012126;28;20470;-66
2021/08/29 06:34:43;;;;;;;8.83;6.07;;;13.50;99.90;;;;;;5012400;28;20468;-66
2021/08/29 06:37:12;;;;;;;7.40;5.77;;;13.50;99.90;;;;;;5012179;28;20446;-66
2021/08/29 06:39:38;;;;;;;7.20;5.37;;;13.50;99.90;;;;;;5012436;28;20442;-66
2021/08/29 06:42:05;;;;;;;5.80;4.70;;;13.50;99.90;;;;;;5011890;28;21007;-66
2021/08/29 06:44:32;;;;;;;7.40;5.20;;;13.60;99.90;;;;;;5012380;28;20441;-65
2021/08/29 06:46:59;;;;;;;7.80;5.10;;;13.60;99.90;;;;;;5012558;28;20529;-66
2021/08/29 06:49:26;;;;;;;5.60;4.93;;;13.60;99.90;;;;;;5012268;28;20823;-65
2021/08/29 06:51:53;;;;;;;5.17;4.60;;;13.60;99.90;;;;;;5011092;28;20588;-65
2021/08/29 06:54:21;;;;;;;5.67;4.70;;;13.50;99.90;;;;;;5012421;28;20464;-65
2021/08/29 06:56:48;;;;;;;5.00;3.90;;;13.60;99.90;;;;;;5012063;28;20481;-65
2021/08/29 06:59:15;;;;;;;5.50;4.00;;;13.60;99.90;;;;;;5012339;28;20446;-65
2021/08/29 07:01:42;;;;;;;3.57;2.93;;;13.60;99.90;;;;;;5012929;28;20453;-65
2021/08/29 07:04:09;;;;;;;4.70;3.70;;;13.60;99.90;;;;;;5011933;28;20840;-65
2021/08/29 07:06:37;;;;;;;5.00;4.17;;;13.60;99.90;;;;;;5012369;28;20446;-65
2021/08/29 07:09:04;;;;;;;5.33;4.17;;;13.60;99.90;;;;;;5012494;28;20500;-65
2021/08/29 07:11:33;;;;;;;6.80;3.93;;;13.70;99.90;;;;;;5012033;28;20473;-65
2021/08/29 07:14:00;;;;;;;4.30;3.43;;;13.80;99.90;;;;;;5011715;28;20941;-65
2021/08/29 07:16:27;;;;;;;6.40;3.27;;;13.80;99.90;;;;;;5011622;28;20473;-66
2021/08/29 07:18:54;;;;;;;4.53;3.03;;;13.80;99.90;;;;;;5012028;28;20452;-66
2021/08/29 07:21:21;;;;;;;4.40;2.90;;;13.80;99.90;;;;;;5011372;28;20450;-67
2021/08/29 07:23:48;;;;;;;3.70;2.90;;;13.80;99.90;;;;;;5011119;28;20528;-68
2021/08/29 07:26:14;;;;;;;3.80;3.00;;;13.80;99.90;;;;;;5011165;28;20442;-67
2021/08/29 07:28:43;;;;;;;4.47;2.93;;;13.90;99.90;;;;;;5011430;28;20533;-66
2021/08/29 07:31:10;;;;;;;4.87;3.13;;;13.90;99.90;;;;;;5011108;28;20448;-65
2021/08/29 07:33:37;;;;;;;6.60;2.97;;;13.80;99.90;;;;;;5010960;28;20470;-66
2021/08/29 07:36:04;;;;;;;5.40;3.47;;;13.90;99.90;;;;;;5011385;28;20572;-65
2021/08/29 07:38:31;;;;;;;6.10;3.70;;;13.90;99.90;;;;;;5011458;28;20459;-66
2021/08/29 07:40:58;;;;;;;5.30;3.27;;;14.00;99.90;;;;;;5011250;28;20452;-66
2021/08/29 07:43:25;;;;;;;4.03;3.50;;;14.00;99.90;;;;;;5011045;28;20492;-65
2021/08/29 07:45:53;;;;;;;4.43;3.50;;;14.10;99.90;;;;;;5011309;28;20444;-65
2021/08/29 07:48:20;;;;;;;3.93;2.83;;;14.10;99.90;;;;;;5011406;28;20448;-66
2021/08/29 07:50:47;;;;;;;3.23;2.60;;;14.20;99.90;;;;;;5011472;28;20481;-66
2021/08/29 07:53:13;;;;;;;2.60;1.77;;;14.10;99.90;;;;;;5011335;28;20468;-65
2021/08/29 07:55:40;;;;;;;3.00;2.10;;;14.00;99.90;;;;;;5011512;28;20493;-65
2021/08/29 07:58:07;;;;;;;2.87;2.13;;;14.00;99.90;;;;;;5011508;28;20445;-66
2021/08/29 08:00:34;;;;;;;3.55;2.78;;;14.00;99.90;;;;;;5011103;28;20457;-66
2021/08/29 08:03:02;;;;;;;3.30;2.40;;;14.00;99.90;;;;;;5010620;28;20317;-66
2021/08/29 08:05:29;;;;;;;3.80;2.57;;;14.10;99.90;;;;;;5012207;28;20540;-65
2021/08/29 08:07:56;;;;;;;4.40;2.67;;;14.20;99.90;;;;;;5011464;28;20992;-65
2021/08/29 08:10:23;;;;;;;4.17;2.63;;;14.40;99.90;;;;;;5011206;28;20533;-65
2021/08/29 08:12:50;;;;;;;4.23;2.30;;;14.50;99.90;;;;;;5011023;28;20502;-65
2021/08/29 08:15:17;;;;;;;3.80;2.60;;;14.60;99.90;;;;;;5010406;28;20463;-65
2021/08/29 08:17:44;;;;;;;2.90;2.07;;;14.60;99.90;;;;;;5010979;28;20456;-65
2021/08/29 08:20:13;;;;;;;2.97;2.10;;;14.70;99.90;;;;;;5012012;28;20865;-66
2021/08/29 08:22:40;;;;;;;3.40;2.20;;;14.70;99.90;;;;;;5014279;28;20504;-65
2021/08/29 08:25:08;;;;;;;3.30;1.80;;;14.80;99.90;;;;;;5012547;28;20478;-65
2021/08/29 08:27:35;;;;;;;4.27;2.70;;;14.90;99.90;;;;;;5013474;28;20441;-65
2021/08/29 08:30:02;;;;;;;5.67;2.37;;;15.00;99.90;;;;;;5013035;28;20456;-65
2021/08/29 08:32:29;;;;;;;3.90;1.90;;;15.00;99.90;;;;;;5012487;28;20470;-66
2021/08/29 08:34:56;;;;;;;2.57;1.60;;;15.10;99.90;;;;;;5013510;28;20484;-65
2021/08/29 08:37:25;;;;;;;5.30;1.90;;;15.20;99.90;;;;;;5010130;28;20916;-66
2021/08/29 08:39:52;;;;;;;2.70;1.70;;;15.30;99.90;;;;;;5013550;28;20455;-66
2021/08/29 08:42:19;;;;;;;2.20;1.20;;;15.30;99.90;;;;;;5010588;28;20472;-66
2021/08/29 08:44:47;;;;;;;2.40;1.30;;;15.40;99.90;;;;;;5010343;28;20457;-66
2021/08/29 08:47:18;;;;;;;2.10;1.10;;;15.30;99.90;;;;;;5010172;28;20446;-65
2021/08/29 08:49:46;;;;;;;2.93;1.30;;;15.30;99.90;;;;;;5010113;28;20442;-64
2021/08/29 08:52:16;;;;;;;2.20;1.17;;;15.40;99.90;;;;;;5010070;28;20470;-65
2021/08/29 08:54:45;;;;;;;2.10;1.00;;;15.60;99.90;;;;;;5010071;28;20441;-64
2021/08/29 08:57:16;;;;;;;2.50;1.30;;;15.80;99.90;;;;;;5009929;28;20526;-65
2021/08/29 08:59:44;;;;;;;2.20;1.20;;;15.90;99.90;;;;;;5010004;28;20937;-65
2021/08/29 09:02:11;;;;;;;3.00;1.13;;;16.00;99.90;;;;;;5009715;28;20469;-65
2021/08/29 09:04:38;;;;;;;2.73;1.50;;;16.00;99.90;;;;;;5009769;28;20453;-65
2021/08/29 09:07:06;;;;;;;2.50;1.50;;;16.10;99.90;;;;;;5009828;28;20537;-65
2021/08/29 09:09:34;;;;;;;3.70;1.50;;;16.20;99.90;;;;;;5010010;28;20511;-65
2021/08/29 09:12:03;;;;;;;2.73;1.13;;;16.20;99.90;;;;;;5009521;28;20469;-65
2021/08/29 09:14:41;;;;;;;2.10;1.00;;;16.10;99.90;;;;;;5011557;28;20485;-65
2021/08/29 09:17:25;;;;;;;3.13;1.10;;;15.90;99.90;;;;;;5013445;28;20572;-66
2021/08/29 09:19:53;;;;;;;2.30;1.20;;;16.00;99.90;;;;;;5013330;28;20941;-66
2021/08/29 09:22:27;;;;;;;2.53;1.33;;;16.20;99.90;;;;;;5013037;28;20466;-67
2021/08/29 09:24:54;;;;;;;2.10;1.10;;;16.20;99.90;;;;;;5013494;28;20465;-67
2021/08/29 09:27:24;;;;;;;2.07;0.93;;;16.20;99.90;;;;;;5013432;28;20464;-67
2021/08/29 09:29:52;;;;;;;2.83;1.00;;;16.20;99.90;;;;;;5013910;28;20449;-66
2021/08/29 09:32:21;;;;;;;1.93;0.87;;;16.20;99.90;;;;;;5013379;28;20473;-66
2021/08/29 09:34:58;;;;;;;2.40;1.23;;;16.20;99.90;;;;;;5013211;28;20456;-66
2021/08/29 09:37:25;;;;;;;2.10;0.87;;;16.20;99.90;;;;;;5012898;28;20489;-67
2021/08/29 09:40:11;;;;;;;2.23;0.90;;;16.10;99.90;;;;;;5012950;28;20494;-67
2021/08/29 09:42:42;;;;;;;2.20;0.90;;;16.00;99.90;;;;;;5013021;28;20858;-66
2021/08/29 09:45:09;;;;;;;1.97;0.70;;;15.90;99.90;;;;;;5013423;28;20454;-66
2021/08/29 09:47:36;;;;;;;2.20;1.00;;;15.90;99.90;;;;;;5012904;28;20484;-66
2021/08/29 09:50:05;;;;;;;2.43;1.10;;;15.90;99.90;;;;;;5012831;28;20454;-67
2021/08/29 09:52:32;;;;;;;2.40;0.90;;;16.00;99.90;;;;;;5012459;28;20469;-66
2021/08/29 09:54:59;;;;;;;2.00;0.80;;;15.90;99.90;;;;;;5012520;28;20446;-66
2021/08/29 09:57:26;;;;;;;2.10;0.83;;;15.80;99.90;;;;;;5012710;28;20487;-66
2021/08/29 09:59:54;;;;;;;4.37;0.90;;;15.90;99.90;;;;;;5012657;28;20455;-66
2021/08/29 10:02:24;;;;;;;1.87;0.77;;;15.90;99.90;;;;;;5012345;28;20576;-66
2021/08/29 10:05:11;;;;;;;1.83;0.67;;;15.90;99.90;;;;;;5012580;28;20569;-66
2021/08/29 10:07:37;;;;;;;2.40;0.90;;;15.90;99.90;;;;;;5012392;28;20441;-67
2021/08/29 10:10:22;;;;;;;2.50;0.67;;;16.00;99.90;;;;;;5012587;28;20450;-67
2021/08/29 10:12:50;;;;;;;3.93;2.27;;;16.10;99.90;;;;;;5012068;28;20545;-66
2021/08/29 10:15:19;;;;;;;2.93;1.70;;;16.20;99.90;;;;;;5012533;28;20462;-67
2021/08/29 10:17:47;;;;;;;2.87;1.30;;;16.30;99.90;;;;;;5012095;28;20867;-67
2021/08/29 10:20:15;;;;;;;4.43;1.10;;;16.30;99.90;;;;;;5013003;28;20572;-65
2021/08/29 10:22:43;;;;;;;2.80;1.00;;;16.30;99.90;;;;;;5011968;28;20466;-66
2021/08/29 10:25:10;;;;;;;2.10;1.00;;;16.30;99.90;;;;;;5011879;28;20460;-66
2021/08/29 10:27:40;;;;;;;2.17;1.00;;;16.40;99.90;;;;;;5012146;28;20452;-66
2021/08/29 10:30:11;;;;;;;3.33;1.17;;;16.30;99.90;;;;;;5012107;28;20960;-65
2021/08/29 10:32:43;;;;;;;1.97;0.90;;;16.30;99.90;;;;;;5011676;28;20502;-65
2021/08/29 10:35:11;;;;;;;2.73;1.27;;;15.90;99.90;;;;;;5012459;28;20854;-65
2021/08/29 10:37:39;;;;;;;2.83;1.40;;;15.80;99.90;;;;;;5012183;28;20540;-65
2021/08/29 10:40:08;;;;;;;2.30;1.20;;;15.70;99.90;;;;;;5012035;28;20971;-65
2021/08/29 10:42:36;;;;;;;3.00;1.10;;;15.50;99.90;;;;;;5011658;28;20480;-65
2021/08/29 10:45:03;;;;;;;2.63;1.40;;;15.30;99.90;;;;;;5011728;28;20472;-65
2021/08/29 10:47:32;;;;;;;3.20;1.60;;;15.40;99.90;;;;;;5011930;28;20786;-65
2021/08/29 10:50:01;;;;;;;3.17;1.57;;;15.30;99.90;;;;;;5011846;28;20540;-65
2021/08/29 10:52:31;;;;;;;3.47;1.70;;;15.40;99.90;;;;;;5011604;28;20580;-65
2021/08/29 10:55:03;;;;;;;3.23;1.70;;;15.50;99.90;;;;;;5011596;28;20448;-66
2021/08/29 10:57:31;;;;;;;2.57;1.37;;;15.60;99.90;;;;;;5011671;28;20849;-65
2021/08/29 11:00:08;;;;;;;2.70;1.07;;;15.50;99.90;;;;;;5011793;28;20551;-67
2021/08/29 11:02:40;;;;;;;3.13;1.13;;;15.40;99.90;;;;;;5011283;28;20458;-66
2021/08/29 11:05:10;;;;;;;2.20;1.03;;;15.40;99.90;;;;;;5011624;28;20528;-66
2021/08/29 11:07:51;;;;;;;3.97;0.80;;;15.40;99.90;;;;;;5011610;28;20444;-66
2021/08/29 11:10:47;;;;;;;2.63;1.20;;;15.30;99.90;;;;;;5011813;28;20493;-66
2021/08/29 11:13:36;;;;;;;2.17;1.00;;;15.20;99.90;;;;;;5010975;28;20886;-66
2021/08/29 11:16:19;;;;;;;2.20;1.00;;;15.20;99.90;;;;;;5011123;28;20481;-66
2021/08/29 11:19:14;;;;;;;4.23;1.00;;;15.10;99.90;;;;;;5009161;28;20454;-66
2021/08/29 11:22:27;;;;;;;1.87;0.70;;;15.00;99.90;;;;;;5010887;28;20489;-66
2021/08/29 11:24:58;;;;;;;2.00;0.80;;;15.10;99.90;;;;;;4975539;28;21001;-66
2021/08/29 11:27:50;;;;;;;2.80;0.97;;;15.10;99.90;;;;;;5011159;28;20489;-66
2021/08/29 11:30:18;;;;;;;4.97;1.20;;;15.20;99.90;;;;;;5011005;28;20882;-66
2021/08/29 11:32:47;;;;;;;2.23;0.80;;;15.30;99.90;;;;;;5010428;28;20577;-66
2021/08/29 11:35:16;;;;;;;3.80;0.70;;;15.50;99.90;;;;;;5010651;28;20473;-67
2021/08/29 11:37:59;;;;;;;3.20;0.83;;;15.60;99.90;;;;;;5010158;28;20485;-67
2021/08/29 11:40:48;;;;;;;2.10;0.90;;;15.70;99.90;;;;;;5010864;28;20837;-67
2021/08/29 11:43:17;;;;;;;1.90;0.77;;;15.60;99.90;;;;;;5010313;28;21154;-66
2021/08/29 11:45:46;;;;;;;2.00;0.93;;;15.60;99.90;;;;;;5010428;28;20814;-66
2021/08/29 11:48:23;;;;;;;2.93;1.00;;;15.50;99.90;;;;;;5010555;28;20438;-67
2021/08/29 11:50:50;;;;;;;3.03;1.07;;;15.50;99.90;;;;;;5010654;28;20456;-66
2021/08/29 11:53:16;;;;;;;3.17;1.20;;;15.50;99.90;;;;;;5010389;28;20908;-66
2021/08/29 11:55:45;;;;;;;2.17;1.10;;;15.50;99.90;;;;;;5010565;28;20446;-66
2021/08/29 11:58:19;;;;;;;3.00;1.30;;;15.50;99.90;;;;;;5010369;28;20485;-69
2021/08/29 12:00:48;;;;;;;2.23;1.23;;;15.70;99.90;;;;;;5010959;28;20457;-69
2021/08/29 12:03:15;;;;;;;3.03;1.27;;;15.80;99.90;;;;;;5014965;28;20458;-68
2021/08/29 12:05:56;;;;;;;4.30;3.90;;;15.80;99.90;;;;;;5013097;28;20457;-74
2021/08/29 12:08:31;;;;;;;4.80;4.30;;;15.60;99.90;;;;;;5013115;28;20528;-76
2021/08/29 12:11:00;;;;;;;5.33;4.83;;;15.50;99.90;;;;;;5013670;28;20449;-74
2021/08/29 12:13:31;;;;;;;5.37;4.60;;;15.50;99.90;;;;;;5013901;28;21008;-75
2021/08/29 12:16:02;;;;;;;4.37;3.90;;;15.70;99.90;;;;;;5014464;28;20542;-74
2021/08/29 12:18:35;;;;;;;6.83;4.37;;;15.70;99.90;;;;;;5011163;28;20865;-66
2021/08/29 12:21:05;;;;;;;4.30;3.47;;;15.80;99.90;;;;;;5013082;28;20450;-70
2021/08/29 12:23:33;;;;;;;4.40;3.50;;;15.90;99.90;;;;;;5013877;28;20893;-71
2021/08/29 12:26:06;;;;;;;5.50;4.80;;;16.10;99.90;;;;;;5013296;28;20454;-68
2021/08/29 12:28:34;;;;;;;4.53;4.10;;;16.20;99.90;;;;;;5014389;28;20525;-68
2021/08/29 12:31:02;;;;;;;3.67;3.30;;;16.40;99.90;;;;;;5011380;28;20450;-67
2021/08/29 12:33:30;;;;;;;4.40;3.93;;;16.40;99.90;;;;;;5010638;28;20862;-68
2021/08/29 12:35:58;;;;;;;4.30;3.53;;;16.30;99.90;;;;;;5010703;28;20484;-68
2021/08/29 12:38:27;;;;;;;4.00;3.57;;;16.30;99.90;;;;;;5010429;28;20492;-67
2021/08/29 12:40:56;;;;;;;4.80;3.90;;;16.30;99.90;;;;;;5010786;28;20541;-68
2021/08/29 12:43:26;;;;;;;5.07;4.57;;;16.40;99.90;;;;;;5010097;28;20556;-68
2021/08/29 12:45:54;;;;;;;4.90;3.87;;;16.40;99.90;;;;;;5010365;28;20456;-68
2021/08/29 12:48:22;;;;;;;4.50;4.00;;;16.30;99.90;;;;;;5010968;28;20462;-67
2021/08/29 12:50:52;;;;;;;5.73;4.87;;;16.00;99.90;;;;;;5014628;28;20454;-67
2021/08/29 12:53:22;;;;;;;5.33;4.73;;;15.80;99.90;;;;;;5014278;28;21102;-68